sensor_id;sensor_type;location;lat;lon;timestamp;temperature;humidity
49821;DHT22;36893;52.520;13.450;2022-08-03T00:05:23;27.10;56.80
49821;DHT22;36893;52.520;13.450;2022-08-03T00:15:23;27.00;57.20
49821;DHT22;36893;52.520;13.450;2022-08-03T00:25:24;27.00;57.10
49821;DHT22;36893;52.520;13.450;2022-08-03T00:35:25;26.90;57.10
49821;DHT22;36893;52.520;13.450;2022-08-03T00:45:39;26.90;57.20
49821;DHT22;36893;52.520;13.450;2022-08-03T00:55:41;26.90;57.30
49821;DHT22;36893;52.520;13.450;2022-08-03T01:05:54;26.80;57.50
49821;DHT22;36893;52.520;13.450;2022-08-03T01:16:40;26.70;58.30
49821;DHT22;36893;52.520;13.450;2022-08-03T01:26:51;26.70;57.90
49821;DHT22;36893;52.520;13.450;2022-08-03T01:36:56;26.60;58.10
49821;DHT22;36893;52.520;13.450;2022-08-03T01:47:00;26.40;58.20
49821;DHT22;36893;52.520;13.450;2022-08-03T01:57:02;26.50;58.30
49821;DHT22;36893;52.520;13.450;2022-08-03T02:07:05;26.40;58.40
49821;DHT22;36893;52.520;13.450;2022-08-03T02:17:08;26.40;58.40
49821;DHT22;36893;52.520;13.450;2022-08-03T02:27:17;26.30;58.50
49821;DHT22;36893;52.520;13.450;2022-08-03T02:37:24;26.30;58.60
49821;DHT22;36893;52.520;13.450;2022-08-03T02:47:27;26.20;58.60
49821;DHT22;36893;52.520;13.450;2022-08-03T02:57:30;26.20;58.60
49821;DHT22;36893;52.520;13.450;2022-08-03T03:07:33;26.20;58.60
49821;DHT22;36893;52.520;13.450;2022-08-03T03:17:36;26.20;58.70
49821;DHT22;36893;52.520;13.450;2022-08-03T03:27:37;26.10;58.70
49821;DHT22;36893;52.520;13.450;2022-08-03T03:37:38;26.10;58.70
49821;DHT22;36893;52.520;13.450;2022-08-03T03:47:39;26.00;58.80
49821;DHT22;36893;52.520;13.450;2022-08-03T03:57:40;26.00;59.00
49821;DHT22;36893;52.520;13.450;2022-08-03T04:08:14;26.00;59.00
49821;DHT22;36893;52.520;13.450;2022-08-03T04:18:36;25.90;59.10
49821;DHT22;36893;52.520;13.450;2022-08-03T04:28:43;25.90;59.10
49821;DHT22;36893;52.520;13.450;2022-08-03T04:49:04;25.80;59.20
49821;DHT22;36893;52.520;13.450;2022-08-03T04:59:06;25.90;59.30
49821;DHT22;36893;52.520;13.450;2022-08-03T05:09:07;25.90;59.20
49821;DHT22;36893;52.520;13.450;2022-08-03T05:19:08;26.00;59.20
49821;DHT22;36893;52.520;13.450;2022-08-03T05:29:08;26.10;59.10
49821;DHT22;36893;52.520;13.450;2022-08-03T05:39:11;26.30;59.00
49821;DHT22;36893;52.520;13.450;2022-08-03T05:49:12;26.50;58.90
49821;DHT22;36893;52.520;13.450;2022-08-03T05:59:13;26.60;58.80
49821;DHT22;36893;52.520;13.450;2022-08-03T06:09:13;26.70;58.80
49821;DHT22;36893;52.520;13.450;2022-08-03T06:19:14;26.80;58.80
49821;DHT22;36893;52.520;13.450;2022-08-03T06:29:15;26.80;58.70
49821;DHT22;36893;52.520;13.450;2022-08-03T06:39:16;26.90;58.70
49821;DHT22;36893;52.520;13.450;2022-08-03T06:49:17;27.00;58.70
49821;DHT22;36893;52.520;13.450;2022-08-03T06:59:18;27.00;58.70
49821;DHT22;36893;52.520;13.450;2022-08-03T07:09:18;27.10;58.80
49821;DHT22;36893;52.520;13.450;2022-08-03T07:19:19;27.10;58.80
49821;DHT22;36893;52.520;13.450;2022-08-03T07:29:20;27.20;59.00
49821;DHT22;36893;52.520;13.450;2022-08-03T07:39:21;27.20;59.10
49821;DHT22;36893;52.520;13.450;2022-08-03T07:49:21;27.20;59.10
49821;DHT22;36893;52.520;13.450;2022-08-03T07:59:22;27.30;59.20
49821;DHT22;36893;52.520;13.450;2022-08-03T08:09:22;27.30;59.20
49821;DHT22;36893;52.520;13.450;2022-08-03T08:19:24;27.30;59.20
49821;DHT22;36893;52.520;13.450;2022-08-03T08:29:24;27.30;59.30
49821;DHT22;36893;52.520;13.450;2022-08-03T08:39:25;27.40;60.00
49821;DHT22;36893;52.520;13.450;2022-08-03T08:49:26;27.40;59.50
49821;DHT22;36893;52.520;13.450;2022-08-03T08:59:31;27.40;59.50
49821;DHT22;36893;52.520;13.450;2022-08-03T09:09:34;27.40;59.50
49821;DHT22;36893;52.520;13.450;2022-08-03T09:19:35;27.50;59.70
49821;DHT22;36893;52.520;13.450;2022-08-03T09:29:36;27.40;59.70
49821;DHT22;36893;52.520;13.450;2022-08-03T09:39:37;27.60;60.00
49821;DHT22;36893;52.520;13.450;2022-08-03T09:49:39;27.60;60.10
49821;DHT22;36893;52.520;13.450;2022-08-03T09:59:40;27.60;61.10
49821;DHT22;36893;52.520;13.450;2022-08-03T10:09:56;27.70;60.60
49821;DHT22;36893;52.520;13.450;2022-08-03T10:19:57;27.70;60.80
49821;DHT22;36893;52.520;13.450;2022-08-03T10:30:05;27.70;60.80
49821;DHT22;36893;52.520;13.450;2022-08-03T10:40:09;27.80;61.00
49821;DHT22;36893;52.520;13.450;2022-08-03T10:50:12;27.80;61.10
49821;DHT22;36893;52.520;13.450;2022-08-03T11:00:17;27.90;61.20
49821;DHT22;36893;52.520;13.450;2022-08-03T11:10:29;27.90;61.30
49821;DHT22;36893;52.520;13.450;2022-08-03T11:20:51;28.00;62.20
49821;DHT22;36893;52.520;13.450;2022-08-03T11:30:53;28.10;61.50
49821;DHT22;36893;52.520;13.450;2022-08-03T11:40:54;28.10;61.50
49821;DHT22;36893;52.520;13.450;2022-08-03T11:50:55;28.20;61.60
49821;DHT22;36893;52.520;13.450;2022-08-03T12:01:04;28.20;61.60
49821;DHT22;36893;52.520;13.450;2022-08-03T12:11:07;28.20;61.80
49821;DHT22;36893;52.520;13.450;2022-08-03T12:21:11;28.30;61.80
49821;DHT22;36893;52.520;13.450;2022-08-03T12:31:11;28.30;61.80
49821;DHT22;36893;52.520;13.450;2022-08-03T12:41:12;28.30;61.70
49821;DHT22;36893;52.520;13.450;2022-08-03T12:51:15;28.30;61.90
49821;DHT22;36893;52.520;13.450;2022-08-03T13:01:16;28.30;62.00
49821;DHT22;36893;52.520;13.450;2022-08-03T13:11:24;28.40;62.10
49821;DHT22;36893;52.520;13.450;2022-08-03T13:21:25;28.40;63.00
49821;DHT22;36893;52.520;13.450;2022-08-03T13:31:26;28.40;62.10
49821;DHT22;36893;52.520;13.450;2022-08-03T13:41:27;28.40;62.20
49821;DHT22;36893;52.520;13.450;2022-08-03T13:51:27;28.40;62.20
49821;DHT22;36893;52.520;13.450;2022-08-03T14:01:28;28.50;62.20
49821;DHT22;36893;52.520;13.450;2022-08-03T14:11:28;28.50;62.20
49821;DHT22;36893;52.520;13.450;2022-08-03T14:21:29;28.50;62.30
49821;DHT22;36893;52.520;13.450;2022-08-03T14:31:30;28.50;62.20
49821;DHT22;36893;52.520;13.450;2022-08-03T14:41:31;28.50;62.20
49821;DHT22;36893;52.520;13.450;2022-08-03T14:51:31;28.50;62.20
49821;DHT22;36893;52.520;13.450;2022-08-03T15:01:32;28.50;62.20
49821;DHT22;36893;52.520;13.450;2022-08-03T15:11:33;28.60;62.30
49821;DHT22;36893;52.520;13.450;2022-08-03T15:21:34;28.60;62.30
49821;DHT22;36893;52.520;13.450;2022-08-03T15:31:35;28.60;62.20
49821;DHT22;36893;52.520;13.450;2022-08-03T15:41:35;28.60;62.20
49821;DHT22;36893;52.520;13.450;2022-08-03T15:51:36;28.60;62.20
49821;DHT22;36893;52.520;13.450;2022-08-03T16:01:37;28.60;62.00
49821;DHT22;36893;52.520;13.450;2022-08-03T16:11:38;28.70;62.10
49821;DHT22;36893;52.520;13.450;2022-08-03T16:21:39;28.70;62.10
49821;DHT22;36893;52.520;13.450;2022-08-03T16:31:40;28.70;62.00
49821;DHT22;36893;52.520;13.450;2022-08-03T16:41:41;28.80;62.00
49821;DHT22;36893;52.520;13.450;2022-08-03T16:51:42;28.70;61.90
49821;DHT22;36893;52.520;13.450;2022-08-03T17:01:45;28.70;61.80
49821;DHT22;36893;52.520;13.450;2022-08-03T17:11:49;28.80;61.90
49821;DHT22;36893;52.520;13.450;2022-08-03T17:22:02;28.80;61.80
49821;DHT22;36893;52.520;13.450;2022-08-03T17:32:06;28.80;61.70
49821;DHT22;36893;52.520;13.450;2022-08-03T17:42:08;28.80;61.60
49821;DHT22;36893;52.520;13.450;2022-08-03T17:52:24;28.80;61.60
49821;DHT22;36893;52.520;13.450;2022-08-03T18:02:43;28.80;61.60
49821;DHT22;36893;52.520;13.450;2022-08-03T18:13:22;28.90;61.50
49821;DHT22;36893;52.520;13.450;2022-08-03T18:23:26;28.90;61.50
49821;DHT22;36893;52.520;13.450;2022-08-03T18:33:28;28.90;61.40
49821;DHT22;36893;52.520;13.450;2022-08-03T18:43:28;28.90;61.40
49821;DHT22;36893;52.520;13.450;2022-08-03T19:03:50;29.00;61.30
49821;DHT22;36893;52.520;13.450;2022-08-03T19:13:55;28.90;61.20
49821;DHT22;36893;52.520;13.450;2022-08-03T19:24:00;29.00;61.20
49821;DHT22;36893;52.520;13.450;2022-08-03T19:34:02;29.00;61.10
49821;DHT22;36893;52.520;13.450;2022-08-03T19:44:13;29.00;61.10
49821;DHT22;36893;52.520;13.450;2022-08-03T19:54:15;29.00;61.00
49821;DHT22;36893;52.520;13.450;2022-08-03T20:04:16;29.10;61.00
49821;DHT22;36893;52.520;13.450;2022-08-03T20:14:18;29.10;61.00
49821;DHT22;36893;52.520;13.450;2022-08-03T20:24:25;29.10;60.90
49821;DHT22;36893;52.520;13.450;2022-08-03T20:34:28;29.10;60.90
49821;DHT22;36893;52.520;13.450;2022-08-03T20:44:29;29.10;60.90
49821;DHT22;36893;52.520;13.450;2022-08-03T20:54:30;29.10;60.90
49821;DHT22;36893;52.520;13.450;2022-08-03T21:04:32;29.10;61.00
49821;DHT22;36893;52.520;13.450;2022-08-03T21:14:37;29.10;61.00
49821;DHT22;36893;52.520;13.450;2022-08-03T21:24:39;29.10;61.00
49821;DHT22;36893;52.520;13.450;2022-08-03T21:34:43;29.10;60.90
49821;DHT22;36893;52.520;13.450;2022-08-03T21:44:44;29.20;60.80
49821;DHT22;36893;52.520;13.450;2022-08-03T21:54:48;29.20;60.80
49821;DHT22;36893;52.520;13.450;2022-08-03T22:04:50;29.20;61.50
49821;DHT22;36893;52.520;13.450;2022-08-03T22:14:53;29.20;60.70
49821;DHT22;36893;52.520;13.450;2022-08-03T22:25:08;29.20;60.50
49821;DHT22;36893;52.520;13.450;2022-08-03T22:35:12;29.30;60.60
49821;DHT22;36893;52.520;13.450;2022-08-03T22:45:13;29.20;60.40
49821;DHT22;36893;52.520;13.450;2022-08-03T22:55:14;29.30;60.50
49821;DHT22;36893;52.520;13.450;2022-08-03T23:05:19;29.30;60.40
49821;DHT22;36893;52.520;13.450;2022-08-03T23:15:23;29.30;60.30
49821;DHT22;36893;52.520;13.450;2022-08-03T23:25:25;29.30;60.30
49821;DHT22;36893;52.520;13.450;2022-08-03T23:35:26;29.40;60.20
49821;DHT22;36893;52.520;13.450;2022-08-03T23:45:46;29.40;60.20
